Time;durP1;ratioP1;P1;durP2;ratioP2;P2;SDS_P1;SDS_P2;PMS_P1;PMS_P2;Temp;Humidity;BMP_temperature;BMP_pressure;BME280_temperature;BME280_humidity;BME280_pressure;Samples;Min_cycle;Max_cycle;Signal;HPM_P1;HPM_P2
2022/08/19 00:01:33;;;;;;;12.70;11.70;;;;;;;;;;5066172;28;24406;-47
2022/08/19 00:03:59;;;;;;;14.88;13.55;;;;;;;;;;5065826;28;24449;-47
2022/08/19 00:06:25;;;;;;;14.57;13.52;;;;;;;;;;5066103;28;24491;-48
2022/08/19 00:08:51;;;;;;;16.00;14.60;;;;;;;;;;5066085;28;24426;-47
2022/08/19 00:11:16;;;;;;;15.10;13.70;;;;;;;;;;5066291;28;25002;-48
2022/08/19 00:13:41;;;;;;;13.47;12.37;;;;;;;;;;5065900;28;24799;-48
2022/08/19 00:16:06;;;;;;;14.23;12.93;;;;;;;;;;5065633;28;24508;-49
2022/08/19 00:18:32;;;;;;;15.43;14.13;;;;;;;;;;5066214;28;24780;-48
2022/08/19 00:20:59;;;;;;;13.07;11.98;;;;;;;;;;5065773;28;24371;-48
2022/08/19 00:23:24;;;;;;;16.30;14.90;;;;;;;;;;5074115;28;24857;-47
2022/08/19 00:25:49;;;;;;;16.50;15.10;;;;;;;;;;5086264;28;24930;-47
2022/08/19 00:28:14;;;;;;;17.83;16.23;;;;;;;;;;5085915;28;24629;-47
2022/08/19 00:30:40;;;;;;;16.00;14.60;;;;;;;;;;5085810;28;24448;-46
2022/08/19 00:33:05;;;;;;;16.10;14.70;;;;;;;;;;5086032;28;24740;-46
2022/08/19 00:35:31;;;;;;;16.30;14.87;;;;;;;;;;5086309;28;24426;-46
2022/08/19 00:37:56;;;;;;;16.90;15.40;;;;;;;;;;5084356;28;24799;-47
2022/08/19 00:40:21;;;;;;;14.90;13.50;;;;;;;;;;5086023;28;24397;-47
2022/08/19 00:42:46;;;;;;;16.30;14.80;;;;;;;;;;5086109;28;24439;-47
2022/08/19 00:45:13;;;;;;;17.70;16.08;;;;;;;;;;5085551;28;24402;-47
2022/08/19 00:47:39;;;;;;;14.80;13.50;;;;;;;;;;5082063;28;24414;-46
2022/08/19 00:50:04;;;;;;;16.90;15.40;;;;;;;;;;5085902;28;24421;-46
2022/08/19 00:52:31;;;;;;;15.20;13.80;;;;;;;;;;5085972;28;24394;-47
2022/08/19 00:54:57;;;;;;;16.02;14.52;;;;;;;;;;5085969;28;24413;-47
2022/08/19 00:57:27;;;;;;;17.90;16.30;;;;;;;;;;5085122;28;24390;-47
2022/08/19 00:59:54;;;;;;;15.88;14.48;;;;;;;;;;5080735;28;24499;-47
2022/08/19 01:02:19;;;;;;;17.50;15.90;;;;;;;;;;5067184;28;24481;-47
2022/08/19 01:04:44;;;;;;;18.40;16.80;;;;;;;;;;5069024;28;24901;-46
2022/08/19 01:07:09;;;;;;;15.45;14.15;;;;;;;;;;5069193;28;24387;-48
2022/08/19 01:09:34;;;;;;;17.85;16.25;;;;;;;;;;5069453;28;25102;-47
2022/08/19 01:12:00;;;;;;;17.88;16.38;;;;;;;;;;5069195;28;24422;-46
2022/08/19 01:14:25;;;;;;;16.20;14.80;;;;;;;;;;5068977;28;24402;-47
2022/08/19 01:16:54;;;;;;;17.70;16.33;;;;;;;;;;5068678;28;24395;-47
2022/08/19 01:19:24;;;;;;;19.50;17.90;;;;;;;;;;5068798;28;24390;-46
2022/08/19 01:21:55;;;;;;;17.85;16.45;;;;;;;;;;5069179;28;24422;-48
2022/08/19 01:24:20;;;;;;;17.00;15.50;;;;;;;;;;5084658;28;25003;-48
2022/08/19 01:26:46;;;;;;;17.40;15.90;;;;;;;;;;5089029;28;24999;-47
2022/08/19 01:29:12;;;;;;;16.77;15.27;;;;;;;;;;5088760;28;24402;-47
2022/08/19 01:31:38;;;;;;;16.42;14.93;;;;;;;;;;5089153;28;24401;-47
2022/08/19 01:34:04;;;;;;;16.08;14.68;;;;;;;;;;5088880;28;24425;-47
2022/08/19 01:36:37;;;;;;;17.13;15.43;;;;;;;;;;5088738;28;24735;-46
2022/08/19 01:39:05;;;;;;;16.25;14.85;;;;;;;;;;5088861;28;24939;-47
2022/08/19 01:41:30;;;;;;;17.95;16.35;;;;;;;;;;5088699;28;24394;-47
2022/08/19 01:43:56;;;;;;;19.30;17.50;;;;;;;;;;5088553;28;24380;-46
2022/08/19 01:46:21;;;;;;;17.50;15.90;;;;;;;;;;5088473;28;25024;-46
2022/08/19 01:48:46;;;;;;;20.23;18.20;;;;;;;;;;5088706;28;24481;-47
2022/08/19 01:51:11;;;;;;;16.80;15.30;;;;;;;;;;5088713;28;24382;-46
2022/08/19 01:53:37;;;;;;;17.00;15.50;;;;;;;;;;5088588;28;25021;-46
2022/08/19 01:56:03;;;;;;;16.93;15.43;;;;;;;;;;5088534;28;24981;-47
2022/08/19 01:58:31;;;;;;;16.52;15.13;;;;;;;;;;5088179;28;25006;-46
2022/08/19 02:00:56;;;;;;;20.20;18.30;;;;;;;;;;5088531;28;24529;-47
2022/08/19 02:03:22;;;;;;;18.90;17.30;;;;;;;;;;5087974;28;24835;-46
2022/08/19 02:05:48;;;;;;;19.40;17.60;;;;;;;;;;5088462;28;24418;-46
2022/08/19 02:08:13;;;;;;;18.45;16.75;;;;;;;;;;5088153;28;24420;-47
2022/08/19 02:10:42;;;;;;;17.45;15.95;;;;;;;;;;5088188;28;25177;-46
2022/08/19 02:13:08;;;;;;;19.88;18.08;;;;;;;;;;5087460;28;24405;-46
2022/08/19 02:15:33;;;;;;;17.40;15.90;;;;;;;;;;5088347;28;24391;-46
2022/08/19 02:17:59;;;;;;;17.97;16.37;;;;;;;;;;5088080;28;24501;-46
2022/08/19 02:20:24;;;;;;;18.60;17.00;;;;;;;;;;5088201;28;24393;-46
2022/08/19 02:22:49;;;;;;;17.23;15.70;;;;;;;;;;5087957;28;24776;-48
2022/08/19 02:25:14;;;;;;;17.60;16.20;;;;;;;;;;5087885;28;24779;-47
2022/08/19 02:27:40;;;;;;;19.10;17.50;;;;;;;;;;5087886;28;24867;-47
2022/08/19 02:30:06;;;;;;;18.00;16.30;;;;;;;;;;5087954;28;24379;-47
2022/08/19 02:32:33;;;;;;;17.88;16.27;;;;;;;;;;5087690;28;24406;-48
2022/08/19 02:34:58;;;;;;;17.80;16.30;;;;;;;;;;5087938;28;24416;-48
2022/08/19 02:40:07;;;;;;;16.73;15.15;;;;;;;;;;5087678;28;24444;-47
2022/08/19 02:42:32;;;;;;;17.87;16.27;;;;;;;;;;5087837;28;24390;-48
2022/08/19 02:44:57;;;;;;;18.27;16.67;;;;;;;;;;5087877;28;24423;-48
2022/08/19 02:47:23;;;;;;;18.02;16.42;;;;;;;;;;5087339;28;24386;-47
2022/08/19 02:49:49;;;;;;;19.10;17.38;;;;;;;;;;5087726;28;24386;-47
2022/08/19 02:52:14;;;;;;;17.83;16.30;;;;;;;;;;5087323;28;24832;-48
2022/08/19 02:54:39;;;;;;;19.30;17.60;;;;;;;;;;5087495;28;24757;-47
2022/08/19 02:57:06;;;;;;;17.63;16.13;;;;;;;;;;5087221;28;24433;-46
2022/08/19 02:59:31;;;;;;;19.15;17.45;;;;;;;;;;5085669;28;24390;-46
2022/08/19 03:01:56;;;;;;;17.60;16.00;;;;;;;;;;5067313;28;24417;-47
2022/08/19 03:04:22;;;;;;;18.60;16.90;;;;;;;;;;5066625;28;24994;-46
2022/08/19 03:06:47;;;;;;;16.20;14.90;;;;;;;;;;5067014;28;24407;-47
2022/08/19 03:09:13;;;;;;;20.00;18.30;;;;;;;;;;5066079;28;24385;-46
2022/08/19 03:11:39;;;;;;;17.00;15.60;;;;;;;;;;5066839;28;24755;-47
2022/08/19 03:14:05;;;;;;;18.20;16.55;;;;;;;;;;5066650;28;24406;-47
2022/08/19 03:16:34;;;;;;;20.13;18.42;;;;;;;;;;5066983;28;24508;-47
2022/08/19 03:19:00;;;;;;;19.98;18.35;;;;;;;;;;5066743;28;24402;-47
2022/08/19 03:21:26;;;;;;;18.40;16.90;;;;;;;;;;5066742;28;24395;-47
2022/08/19 03:23:54;;;;;;;18.48;16.98;;;;;;;;;;5077796;28;25018;-47
2022/08/19 03:26:19;;;;;;;16.83;15.43;;;;;;;;;;5086374;28;24430;-47
2022/08/19 03:28:49;;;;;;;17.53;16.03;;;;;;;;;;5086580;28;24504;-47
2022/08/19 03:31:15;;;;;;;20.30;18.40;;;;;;;;;;5086854;28;24390;-47
2022/08/19 03:33:41;;;;;;;19.15;17.45;;;;;;;;;;5086325;28;24483;-47
2022/08/19 03:36:07;;;;;;;19.17;17.27;;;;;;;;;;5086994;28;24528;-47
2022/08/19 03:38:32;;;;;;;20.50;18.70;;;;;;;;;;5086577;28;24489;-47
2022/08/19 03:40:57;;;;;;;18.17;16.47;;;;;;;;;;5086690;28;24399;-47
2022/08/19 03:43:22;;;;;;;19.90;18.00;;;;;;;;;;5086463;28;24394;-47
2022/08/19 03:45:48;;;;;;;20.13;18.40;;;;;;;;;;5086665;28;24430;-47
2022/08/19 03:48:14;;;;;;;19.53;17.93;;;;;;;;;;5086560;28;24396;-48
2022/08/19 03:50:39;;;;;;;21.23;19.33;;;;;;;;;;5086279;28;24395;-47
2022/08/19 03:53:06;;;;;;;18.80;17.10;;;;;;;;;;5086516;28;24395;-47
2022/08/19 03:55:31;;;;;;;18.35;16.85;;;;;;;;;;5086263;28;24940;-47
2022/08/19 03:57:56;;;;;;;18.60;16.90;;;;;;;;;;5086320;28;24400;-47
2022/08/19 04:00:21;;;;;;;19.50;17.80;;;;;;;;;;5086308;28;24448;-48
2022/08/19 04:02:46;;;;;;;20.53;18.57;;;;;;;;;;5086496;28;24405;-46
2022/08/19 04:05:13;;;;;;;18.70;17.20;;;;;;;;;;5086089;28;24934;-47
2022/08/19 04:07:38;;;;;;;19.02;17.42;;;;;;;;;;5085847;28;24811;-46
2022/08/19 04:10:04;;;;;;;20.20;18.50;;;;;;;;;;5086528;28;24390;-47
2022/08/19 04:12:29;;;;;;;20.10;18.10;;;;;;;;;;5086074;28;24435;-47
2022/08/19 04:14:54;;;;;;;17.15;15.75;;;;;;;;;;5086279;28;24394;-47
2022/08/19 04:17:19;;;;;;;17.52;16.13;;;;;;;;;;5086193;28;24387;-47
2022/08/19 04:19:44;;;;;;;17.67;16.08;;;;;;;;;;5086104;28;24387;-47
2022/08/19 04:22:11;;;;;;;18.85;17.13;;;;;;;;;;5086220;28;24485;-47
2022/08/19 04:24:36;;;;;;;18.13;16.50;;;;;;;;;;5086123;28;25006;-47
2022/08/19 04:27:02;;;;;;;19.90;18.20;;;;;;;;;;5086008;28;24493;-48
2022/08/19 04:29:29;;;;;;;20.07;18.17;;;;;;;;;;5086258;28;24383;-47
2022/08/19 04:31:55;;;;;;;18.52;16.92;;;;;;;;;;5086490;28;24401;-48
2022/08/19 04:34:22;;;;;;;20.17;18.37;;;;;;;;;;5085669;28;24974;-47
2022/08/19 04:36:47;;;;;;;19.75;18.00;;;;;;;;;;5089298;28;24486;-47
2022/08/19 04:39:16;;;;;;;19.43;17.73;;;;;;;;;;5090214;28;24481;-47
2022/08/19 04:44:25;;;;;;;17.92;16.33;;;;;;;;;;5090053;28;24463;-48
2022/08/19 04:46:51;;;;;;;18.20;16.60;;;;;;;;;;5090097;28;24386;-47
2022/08/19 04:49:17;;;;;;;20.88;19.08;;;;;;;;;;5089796;28;24386;-47
2022/08/19 04:51:43;;;;;;;20.83;18.95;;;;;;;;;;5089917;28;24447;-48
2022/08/19 04:54:08;;;;;;;20.25;18.48;;;;;;;;;;5089728;28;24410;-48
2022/08/19 04:56:33;;;;;;;18.37;16.67;;;;;;;;;;5089776;28;24406;-47
2022/08/19 04:59:03;;;;;;;21.47;19.47;;;;;;;;;;5089770;28;24414;-47
2022/08/19 05:01:29;;;;;;;20.70;18.70;;;;;;;;;;5071445;28;24979;-47
2022/08/19 05:03:55;;;;;;;20.60;18.60;;;;;;;;;;5069454;28;24378;-48
2022/08/19 05:06:21;;;;;;;18.90;17.30;;;;;;;;;;5069046;28;25079;-47
2022/08/19 05:08:46;;;;;;;20.33;18.42;;;;;;;;;;5069323;28;24394;-47
2022/08/19 05:11:15;;;;;;;21.93;19.73;;;;;;;;;;5069403;28;25264;-47
2022/08/19 05:13:40;;;;;;;21.23;19.27;;;;;;;;;;5069068;28;24402;-47
2022/08/19 05:16:06;;;;;;;19.88;18.17;;;;;;;;;;5069185;28;24503;-47
2022/08/19 05:24:00;;;;;;;18.45;16.85;;;;;;;;;;5081930;28;24500;-49
2022/08/19 05:26:28;;;;;;;19.25;17.38;;;;;;;;;;5089193;28;24410;-48
2022/08/19 05:28:54;;;;;;;21.80;19.80;;;;;;;;;;5089105;28;24387;-47
2022/08/19 05:31:19;;;;;;;19.93;18.03;;;;;;;;;;5088970;28;24439;-48
2022/08/19 05:33:44;;;;;;;21.33;19.33;;;;;;;;;;5089147;28;24401;-47
2022/08/19 05:36:09;;;;;;;21.20;19.20;;;;;;;;;;5089182;28;24387;-48
2022/08/19 05:38:35;;;;;;;21.23;19.23;;;;;;;;;;5088880;28;24474;-47
2022/08/19 05:41:00;;;;;;;22.37;20.07;;;;;;;;;;5089217;28;25004;-47
2022/08/19 05:43:26;;;;;;;21.08;19.17;;;;;;;;;;5088727;28;24410;-48
2022/08/19 05:45:51;;;;;;;21.13;19.13;;;;;;;;;;5088714;28;24414;-47
2022/08/19 05:48:20;;;;;;;21.00;19.00;;;;;;;;;;5088331;28;24398;-48
2022/08/19 05:50:45;;;;;;;20.95;19.05;;;;;;;;;;5089044;28;24386;-47
2022/08/19 05:53:10;;;;;;;20.52;18.42;;;;;;;;;;5088786;28;24422;-47
2022/08/19 05:55:37;;;;;;;21.65;19.65;;;;;;;;;;5088427;28;24378;-45
2022/08/19 05:58:03;;;;;;;19.75;17.95;;;;;;;;;;5088929;28;24392;-46
2022/08/19 06:00:31;;;;;;;22.27;20.07;;;;;;;;;;5088004;28;24406;-46
2022/08/19 06:02:56;;;;;;;22.63;20.38;;;;;;;;;;5088872;28;24470;-46
2022/08/19 06:05:21;;;;;;;19.70;17.90;;;;;;;;;;5088292;28;24506;-46
2022/08/19 06:07:46;;;;;;;19.30;17.50;;;;;;;;;;5088808;28;24741;-46
2022/08/19 06:10:11;;;;;;;18.70;16.90;;;;;;;;;;5088213;28;24428;-46
2022/08/19 06:12:37;;;;;;;19.20;17.40;;;;;;;;;;5088253;28;24443;-46
2022/08/19 06:15:05;;;;;;;19.50;17.70;;;;;;;;;;5088876;28;24401;-46
2022/08/19 06:17:31;;;;;;;17.98;16.27;;;;;;;;;;5088312;28;24403;-46
2022/08/19 06:19:56;;;;;;;18.90;17.10;;;;;;;;;;5088224;28;24386;-46
2022/08/19 06:22:21;;;;;;;18.40;16.80;;;;;;;;;;5088212;28;24436;-46
2022/08/19 06:24:46;;;;;;;18.00;16.40;;;;;;;;;;5087683;28;24437;-47
2022/08/19 06:27:11;;;;;;;16.88;15.38;;;;;;;;;;5087982;28;24452;-47
2022/08/19 06:29:37;;;;;;;16.00;14.57;;;;;;;;;;5087951;28;24441;-46
2022/08/19 06:32:02;;;;;;;15.40;13.90;;;;;;;;;;5088165;28;24741;-46
2022/08/19 06:34:29;;;;;;;15.60;14.20;;;;;;;;;;5088072;28;24478;-46
2022/08/19 06:36:54;;;;;;;15.00;13.70;;;;;;;;;;5088091;28;24932;-46
2022/08/19 06:39:24;;;;;;;14.43;13.17;;;;;;;;;;5087382;28;24439;-47
2022/08/19 06:41:50;;;;;;;14.05;12.75;;;;;;;;;;5087357;28;24456;-46
2022/08/19 06:44:16;;;;;;;14.10;12.80;;;;;;;;;;5087837;28;24532;-46
2022/08/19 06:46:42;;;;;;;14.00;12.60;;;;;;;;;;5087821;28;24477;-47
2022/08/19 06:49:09;;;;;;;13.95;12.55;;;;;;;;;;5087796;28;24930;-47
2022/08/19 06:51:35;;;;;;;12.60;11.50;;;;;;;;;;5087572;28;24410;-47
2022/08/19 06:54:01;;;;;;;13.50;12.40;;;;;;;;;;5087520;28;24401;-47
2022/08/19 06:56:33;;;;;;;13.20;12.00;;;;;;;;;;5087142;28;24809;-47
2022/08/19 06:58:58;;;;;;;14.00;12.70;;;;;;;;;;5086854;28;24448;-47
2022/08/19 07:01:23;;;;;;;13.30;12.10;;;;;;;;;;5067934;28;24398;-47
2022/08/19 07:03:48;;;;;;;14.25;12.85;;;;;;;;;;5066845;28;24391;-47
2022/08/19 07:06:17;;;;;;;14.03;12.80;;;;;;;;;;5067266;28;24415;-47
2022/08/19 07:08:42;;;;;;;14.25;12.95;;;;;;;;;;5066659;28;24440;-47
2022/08/19 07:11:09;;;;;;;13.47;12.27;;;;;;;;;;5067196;28;24387;-47
2022/08/19 07:13:36;;;;;;;13.68;12.27;;;;;;;;;;5066880;28;24720;-47
2022/08/19 07:16:05;;;;;;;13.00;11.80;;;;;;;;;;5066939;28;24395;-47
2022/08/19 07:18:31;;;;;;;14.18;12.77;;;;;;;;;;5066718;28;24433;-47
2022/08/19 07:21:09;;;;;;;13.88;12.70;;;;;;;;;;5066348;28;24433;-47
2022/08/19 07:23:34;;;;;;;15.60;14.23;;;;;;;;;;5076022;28;24426;-47
2022/08/19 07:26:06;;;;;;;14.30;12.80;;;;;;;;;;5086788;28;24429;-48
2022/08/19 07:28:31;;;;;;;14.20;12.80;;;;;;;;;;5086847;28;24386;-47
2022/08/19 07:30:56;;;;;;;14.00;12.70;;;;;;;;;;5086802;28;24490;-49
2022/08/19 07:33:21;;;;;;;13.63;12.33;;;;;;;;;;5086614;28;24474;-47
2022/08/19 07:35:46;;;;;;;14.43;12.93;;;;;;;;;;5086765;28;24394;-49
2022/08/19 07:38:11;;;;;;;13.40;12.20;;;;;;;;;;5086772;28;24473;-47
2022/08/19 07:40:36;;;;;;;14.15;12.75;;;;;;;;;;5086475;28;24390;-46
2022/08/19 07:43:02;;;;;;;14.90;13.50;;;;;;;;;;5086646;28;24505;-46
2022/08/19 07:45:28;;;;;;;14.20;12.70;;;;;;;;;;5086788;28;24413;-47
2022/08/19 07:47:53;;;;;;;18.20;15.57;;;;;;;;;;5086390;28;24476;-46
2022/08/19 07:50:19;;;;;;;15.73;14.23;;;;;;;;;;5085788;28;24960;-46
2022/08/19 07:52:45;;;;;;;17.38;15.70;;;;;;;;;;5086333;28;24413;-47
2022/08/19 07:55:10;;;;;;;16.20;14.70;;;;;;;;;;5086734;28;24386;-46
2022/08/19 07:57:35;;;;;;;15.50;14.00;;;;;;;;;;5086416;28;24927;-47
2022/08/19 08:00:00;;;;;;;15.25;13.85;;;;;;;;;;5086192;28;24414;-47
2022/08/19 08:02:26;;;;;;;15.13;13.63;;;;;;;;;;5086455;28;24867;-48
2022/08/19 08:10:18;;;;;;;18.00;16.30;;;;;;;;;;5087997;28;24447;-48
2022/08/19 08:12:44;;;;;;;18.35;16.55;;;;;;;;;;5092872;28;24394;-47
2022/08/19 08:15:11;;;;;;;18.10;16.40;;;;;;;;;;5092966;28;24410;-46
2022/08/19 08:17:37;;;;;;;16.98;15.38;;;;;;;;;;5093275;28;24444;-46
2022/08/19 08:20:06;;;;;;;15.40;13.93;;;;;;;;;;5092912;28;24828;-48
2022/08/19 08:25:16;;;;;;;17.00;15.40;;;;;;;;;;5092696;28;24417;-47
2022/08/19 08:27:43;;;;;;;15.10;13.70;;;;;;;;;;5092665;28;24406;-47
2022/08/19 08:30:09;;;;;;;16.98;15.38;;;;;;;;;;5092814;28;24393;-46
2022/08/19 08:32:38;;;;;;;16.10;14.50;;;;;;;;;;5092680;28;24438;-47
2022/08/19 08:35:04;;;;;;;15.05;13.65;;;;;;;;;;5092808;28;24406;-52
2022/08/19 08:37:30;;;;;;;15.30;14.00;;;;;;;;;;5093151;28;24409;-48
2022/08/19 08:39:55;;;;;;;15.47;14.00;;;;;;;;;;5092191;28;24399;-46
2022/08/19 08:42:27;;;;;;;13.93;12.63;;;;;;;;;;5092581;28;24405;-47
2022/08/19 08:44:52;;;;;;;16.00;14.50;;;;;;;;;;5092701;28;24425;-47
2022/08/19 08:47:19;;;;;;;15.43;14.03;;;;;;;;;;5093241;28;24391;-47
2022/08/19 08:49:51;;;;;;;17.92;16.13;;;;;;;;;;5092688;28;24423;-47
2022/08/19 08:52:20;;;;;;;17.35;15.85;;;;;;;;;;5092765;28;24955;-48
2022/08/19 08:54:47;;;;;;;16.23;14.82;;;;;;;;;;5092763;28;24413;-48
2022/08/19 08:57:17;;;;;;;16.40;14.80;;;;;;;;;;5091844;28;22399;-48
2022/08/19 08:59:45;;;;;;;13.52;12.23;;;;;;;;;;5075351;28;24409;-48
2022/08/19 09:02:10;;;;;;;13.30;12.20;;;;;;;;;;5072357;28;24426;-46
2022/08/19 09:04:35;;;;;;;12.57;11.48;;;;;;;;;;5072494;28;24512;-49
2022/08/19 09:07:19;;;;;;;13.30;12.10;;;;;;;;;;5071802;28;24403;-47
2022/08/19 09:09:46;;;;;;;12.98;11.70;;;;;;;;;;5072098;28;24441;-46
2022/08/19 09:12:17;;;;;;;12.77;11.70;;;;;;;;;;5072443;28;24399;-46
2022/08/19 09:14:49;;;;;;;14.30;13.00;;;;;;;;;;5072094;28;24947;-47
2022/08/19 09:17:14;;;;;;;11.50;10.50;;;;;;;;;;5072399;28;24413;-47
2022/08/19 09:19:50;;;;;;;12.25;11.15;;;;;;;;;;5071854;28;24398;-47
2022/08/19 09:22:15;;;;;;;14.40;13.10;;;;;;;;;;5069323;28;24430;-46
2022/08/19 09:24:41;;;;;;;13.03;11.83;;;;;;;;;;5087846;28;24488;-46
2022/08/19 09:27:06;;;;;;;12.98;11.73;;;;;;;;;;5089450;28;24414;-48
2022/08/19 09:29:31;;;;;;;12.30;11.20;;;;;;;;;;5088945;28;24817;-48
2022/08/19 09:31:56;;;;;;;13.10;12.10;;;;;;;;;;5088772;28;24386;-47
2022/08/19 09:34:21;;;;;;;12.23;11.23;;;;;;;;;;5088658;28;24800;-48
2022/08/19 09:36:46;;;;;;;12.03;11.13;;;;;;;;;;5088691;28;24387;-48
2022/08/19 09:39:12;;;;;;;13.00;11.90;;;;;;;;;;5089053;28;24796;-47
2022/08/19 09:41:37;;;;;;;11.87;10.87;;;;;;;;;;5088804;28;24386;-48
2022/08/19 09:44:02;;;;;;;12.00;11.00;;;;;;;;;;5088698;28;24559;-47
2022/08/19 09:46:28;;;;;;;11.50;10.60;;;;;;;;;;5089064;28;24717;-47
2022/08/19 09:48:54;;;;;;;11.57;10.68;;;;;;;;;;5088358;28;24441;-48
2022/08/19 09:51:21;;;;;;;14.37;13.17;;;;;;;;;;5088346;28;24422;-46
2022/08/19 09:53:47;;;;;;;13.52;12.30;;;;;;;;;;5088633;28;24387;-46
2022/08/19 09:56:12;;;;;;;13.10;12.00;;;;;;;;;;5088665;28;24452;-47
2022/08/19 09:58:38;;;;;;;14.20;13.10;;;;;;;;;;5088321;28;24429;-47
2022/08/19 10:01:04;;;;;;;13.90;12.70;;;;;;;;;;5088533;28;24399;-48
2022/08/19 10:03:30;;;;;;;14.30;13.15;;;;;;;;;;5088521;28;24435;-48
2022/08/19 10:06:00;;;;;;;12.55;11.50;;;;;;;;;;5088397;28;24486;-48
2022/08/19 10:08:28;;;;;;;15.45;14.15;;;;;;;;;;5088711;28;24390;-46
2022/08/19 10:10:54;;;;;;;13.32;12.23;;;;;;;;;;5087337;28;24402;-47
2022/08/19 10:13:24;;;;;;;15.27;14.02;;;;;;;;;;5088149;28;24998;-47
2022/08/19 10:15:50;;;;;;;21.85;19.45;;;;;;;;;;5088400;28;24489;-48
2022/08/19 10:18:17;;;;;;;16.17;14.77;;;;;;;;;;5088533;28;24590;-48
2022/08/19 10:20:43;;;;;;;13.20;12.10;;;;;;;;;;5087999;28;24401;-48
2022/08/19 10:23:08;;;;;;;11.30;10.30;;;;;;;;;;5087884;28;24784;-49
2022/08/19 10:25:34;;;;;;;12.90;11.90;;;;;;;;;;5088109;28;24406;-48
2022/08/19 10:27:59;;;;;;;13.18;11.98;;;;;;;;;;5088010;28;24391;-48
2022/08/19 10:30:25;;;;;;;12.70;11.60;;;;;;;;;;5087585;28;24465;-47
2022/08/19 10:32:50;;;;;;;11.30;10.40;;;;;;;;;;5087468;28;24505;-47
2022/08/19 10:35:15;;;;;;;10.60;9.60;;;;;;;;;;5087798;28;24400;-47
2022/08/19 10:37:40;;;;;;;11.40;10.40;;;;;;;;;;5087954;28;24490;-47
2022/08/19 10:40:07;;;;;;;9.70;8.90;;;;;;;;;;5087826;28;24409;-48
2022/08/19 10:42:32;;;;;;;9.73;9.02;;;;;;;;;;5087774;28;24392;-47
2022/08/19 10:44:58;;;;;;;9.63;8.93;;;;;;;;;;5087279;28;24855;-47
2022/08/19 10:47:23;;;;;;;9.52;8.82;;;;;;;;;;5087567;28;24476;-47
2022/08/19 10:52:35;;;;;;;9.73;9.02;;;;;;;;;;5087861;28;24401;-48
2022/08/19 10:57:45;;;;;;;9.25;8.55;;;;;;;;;;5087083;28;24543;-46
2022/08/19 11:00:11;;;;;;;8.87;8.17;;;;;;;;;;5067011;28;24489;-46
2022/08/19 11:02:36;;;;;;;8.10;7.50;;;;;;;;;;5067094;28;24410;-48
2022/08/19 11:05:01;;;;;;;8.30;7.70;;;;;;;;;;5066999;28;24440;-48
2022/08/19 11:07:26;;;;;;;7.30;6.80;;;;;;;;;;5067430;28;24490;-48
2022/08/19 11:09:51;;;;;;;7.70;7.10;;;;;;;;;;5066828;28;24395;-48
2022/08/19 11:12:17;;;;;;;6.80;6.30;;;;;;;;;;5066768;28;24529;-48
2022/08/19 11:14:42;;;;;;;7.23;6.73;;;;;;;;;;5067242;28;24799;-47
2022/08/19 11:17:07;;;;;;;7.40;6.90;;;;;;;;;;5067037;28;24395;-49
2022/08/19 11:19:33;;;;;;;7.05;6.55;;;;;;;;;;5066862;28;24390;-49
2022/08/19 11:22:02;;;;;;;7.20;6.70;;;;;;;;;;5066765;28;24408;-48
2022/08/19 11:24:27;;;;;;;7.20;6.70;;;;;;;;;;5083862;28;25032;-48
2022/08/19 11:26:58;;;;;;;7.50;6.90;;;;;;;;;;5086728;28;24497;-48
2022/08/19 11:29:27;;;;;;;7.60;7.10;;;;;;;;;;5087374;28;24414;-47
2022/08/19 11:31:53;;;;;;;8.95;8.15;;;;;;;;;;5086578;28;24965;-49
2022/08/19 11:34:20;;;;;;;9.52;8.80;;;;;;;;;;5086856;28;24406;-48
2022/08/19 11:36:47;;;;;;;8.07;7.47;;;;;;;;;;5086824;28;24975;-47
2022/08/19 11:39:13;;;;;;;8.30;7.70;;;;;;;;;;5087120;28;24914;-47
2022/08/19 11:41:38;;;;;;;8.13;7.53;;;;;;;;;;5086269;28;24954;-47
2022/08/19 11:44:04;;;;;;;9.97;9.20;;;;;;;;;;5086327;28;24474;-47
2022/08/19 11:46:30;;;;;;;8.53;7.93;;;;;;;;;;5086039;28;24406;-47
2022/08/19 11:48:55;;;;;;;9.65;8.95;;;;;;;;;;5086856;28;24561;-48
2022/08/19 11:51:21;;;;;;;10.30;9.50;;;;;;;;;;5086495;28;24493;-47
2022/08/19 11:53:47;;;;;;;11.00;10.02;;;;;;;;;;5086391;28;24398;-47
2022/08/19 11:56:12;;;;;;;9.70;9.00;;;;;;;;;;5086648;28;24416;-47
2022/08/19 11:58:38;;;;;;;9.95;9.15;;;;;;;;;;5086411;28;24557;-47
2022/08/19 12:01:07;;;;;;;10.68;9.77;;;;;;;;;;5086265;28;25073;-46
2022/08/19 12:03:33;;;;;;;11.45;10.55;;;;;;;;;;5086338;28;24814;-46
2022/08/19 12:06:02;;;;;;;10.45;9.65;;;;;;;;;;5086240;28;24513;-47
2022/08/19 12:08:27;;;;;;;10.48;9.70;;;;;;;;;;5086614;28;24827;-46
2022/08/19 12:10:52;;;;;;;10.82;9.82;;;;;;;;;;5086171;28;24980;-46
2022/08/19 12:13:18;;;;;;;11.45;10.55;;;;;;;;;;5086280;28;24398;-47
2022/08/19 12:15:45;;;;;;;11.60;10.60;;;;;;;;;;5086642;28;24382;-47
2022/08/19 12:18:10;;;;;;;12.70;11.60;;;;;;;;;;5086412;28;24424;-48
2022/08/19 12:20:36;;;;;;;12.80;11.70;;;;;;;;;;5086370;28;24402;-48
2022/08/19 12:23:02;;;;;;;12.88;11.77;;;;;;;;;;5085590;28;24487;-48
2022/08/19 12:25:27;;;;;;;12.57;11.57;;;;;;;;;;5086166;28;24414;-47
2022/08/19 12:27:52;;;;;;;13.73;12.53;;;;;;;;;;5086345;28;24398;-48
2022/08/19 12:30:17;;;;;;;14.70;13.40;;;;;;;;;;5086364;28;24386;-47
2022/08/19 12:32:43;;;;;;;16.40;15.00;;;;;;;;;;5086269;28;24796;-47
2022/08/19 12:35:11;;;;;;;15.40;14.10;;;;;;;;;;5086259;28;24390;-47
2022/08/19 12:37:36;;;;;;;13.25;12.15;;;;;;;;;;5086069;28;24409;-48
2022/08/19 12:40:02;;;;;;;13.37;12.27;;;;;;;;;;5085912;28;24740;-47
2022/08/19 12:42:28;;;;;;;16.67;15.27;;;;;;;;;;5086315;28;24531;-47
2022/08/19 12:44:53;;;;;;;14.80;13.50;;;;;;;;;;5086298;28;24869;-48
2022/08/19 12:47:18;;;;;;;14.93;13.73;;;;;;;;;;5086144;28;24501;-49
2022/08/19 12:49:44;;;;;;;16.25;14.85;;;;;;;;;;5086421;28;24427;-47
2022/08/19 12:52:10;;;;;;;19.63;17.83;;;;;;;;;;5085707;28;24406;-47
2022/08/19 12:54:35;;;;;;;16.90;15.30;;;;;;;;;;5085975;28;24397;-47
2022/08/19 12:57:04;;;;;;;18.97;17.17;;;;;;;;;;5087203;28;24509;-47
2022/08/19 12:59:29;;;;;;;17.20;15.70;;;;;;;;;;5074849;28;24494;-47
2022/08/19 13:01:54;;;;;;;17.10;15.50;;;;;;;;;;5069445;28;24493;-48
2022/08/19 13:04:19;;;;;;;15.93;14.53;;;;;;;;;;5069250;28;24402;-48
2022/08/19 13:06:45;;;;;;;15.32;13.93;;;;;;;;;;5069519;28;24457;-47
2022/08/19 13:09:10;;;;;;;16.90;15.40;;;;;;;;;;5069568;28;24937;-46
2022/08/19 13:11:36;;;;;;;16.37;14.97;;;;;;;;;;5069197;28;24391;-46
2022/08/19 13:14:02;;;;;;;17.00;15.40;;;;;;;;;;5069021;28;24444;-46
2022/08/19 13:16:27;;;;;;;17.30;15.80;;;;;;;;;;5069490;28;24399;-46
2022/08/19 13:18:53;;;;;;;17.80;16.30;;;;;;;;;;5069263;28;24397;-46
2022/08/19 13:21:19;;;;;;;17.23;15.50;;;;;;;;;;5068841;28;24780;-47
2022/08/19 13:23:45;;;;;;;16.20;14.80;;;;;;;;;;5079870;28;24985;-47
2022/08/19 13:26:11;;;;;;;15.30;13.90;;;;;;;;;;5089220;28;24429;-47
2022/08/19 13:34:05;;;;;;;18.60;17.10;;;;;;;;;;5089159;28;24428;-47
2022/08/19 13:36:31;;;;;;;19.77;17.77;;;;;;;;;;5089082;28;24794;-47
2022/08/19 13:38:56;;;;;;;17.20;15.65;;;;;;;;;;5089518;28;24420;-48
2022/08/19 13:41:21;;;;;;;18.00;16.40;;;;;;;;;;5088572;28;24939;-48
2022/08/19 13:43:48;;;;;;;17.93;16.23;;;;;;;;;;5088750;28;24437;-47
2022/08/19 13:46:13;;;;;;;19.92;17.92;;;;;;;;;;5088914;28;25021;-47
2022/08/19 13:48:39;;;;;;;19.00;17.23;;;;;;;;;;5088676;28;24470;-48
2022/08/19 13:51:04;;;;;;;19.90;18.10;;;;;;;;;;5088899;28;24386;-48
2022/08/19 13:53:30;;;;;;;19.38;17.67;;;;;;;;;;5088688;28;24795;-48
2022/08/19 13:55:55;;;;;;;18.73;16.92;;;;;;;;;;5089033;28;24799;-48
2022/08/19 13:58:22;;;;;;;19.27;17.47;;;;;;;;;;5088620;28;24418;-49
2022/08/19 14:00:47;;;;;;;20.00;18.20;;;;;;;;;;5089015;28;24463;-47
2022/08/19 14:03:13;;;;;;;17.00;15.50;;;;;;;;;;5088290;28;24382;-48
2022/08/19 14:05:38;;;;;;;19.33;17.63;;;;;;;;;;5088996;28;24979;-47
2022/08/19 14:08:04;;;;;;;22.17;20.07;;;;;;;;;;5087855;28;25232;-48
2022/08/19 14:10:31;;;;;;;23.30;21.10;;;;;;;;;;5089060;28;24830;-49
2022/08/19 14:12:58;;;;;;;21.58;19.48;;;;;;;;;;5088902;28;24390;-47
2022/08/19 14:15:23;;;;;;;22.13;20.02;;;;;;;;;;5088873;28;24554;-47
2022/08/19 14:17:48;;;;;;;18.77;16.98;;;;;;;;;;5088404;28;24528;-47
2022/08/19 14:20:15;;;;;;;22.83;20.63;;;;;;;;;;5088352;28;24504;-47
2022/08/19 14:22:40;;;;;;;20.53;18.63;;;;;;;;;;5087784;28;24782;-48
2022/08/19 14:25:07;;;;;;;19.67;17.88;;;;;;;;;;5088132;28;25088;-48
2022/08/19 14:27:33;;;;;;;18.60;16.80;;;;;;;;;;5088246;28;24496;-48
2022/08/19 14:29:59;;;;;;;22.93;20.83;;;;;;;;;;5088379;28;24528;-48
2022/08/19 14:32:26;;;;;;;26.10;23.60;;;;;;;;;;5088048;28;24398;-47
2022/08/19 14:34:52;;;;;;;22.52;20.40;;;;;;;;;;5088189;28;24389;-47
2022/08/19 14:37:17;;;;;;;23.67;21.30;;;;;;;;;;5088336;28;24401;-47
2022/08/19 14:39:42;;;;;;;19.40;17.60;;;;;;;;;;5088291;28;24393;-47
2022/08/19 14:42:08;;;;;;;28.55;25.55;;;;;;;;;;5087424;28;24443;-47